Iroquois, Canada
Current Conditions -  °F | °C
As of 10:53 AM on Sunday 23 Nov 2014 (Local Time) from KMSS Reporting Station
Haze Haze  
Wind Chill: 41°   Ceiling: 600
Heat Index: 45°   Visibility: 4mi
Dew Point: 45°   Wind: 8mph
Humidity: 100%   Direction: 200°SSW
Pressure: 30.04"   Gusts: NA
Location:  44.85°N, 75.32°W
Report Text: KMSS 231553Z AUTO 20007KT 4SM BR OVC006 07/07 A3004 RMK AO2 SLP175 T00720072 $
Loading
Personal Weather Stations






























Interactive Weather Map New forecast layout! Learn more

10-Day Weather Forecast

Advertisements
Track Severe Weather on mobile